Tiempo atmosférico en la estación meteorológica de Fuente Álamo de Murcia, Murcia (140 m.)



Fecha
DESCASC
Temp. máxima en grados centígrados (hora)
DESCASC
Temp. mínima en grados centígrados (hora)
DESCASC
Temp. media en grados centígrados
DESCASC
Racha de viento máxima en m/sg (hora)
DESCASC
Velocidad máxima media en intervalos de 10 minutos(hora)
DESCASC
Precipitaciones diarias en mm
DESCASC
Precipitaciones de 00:00 a 06:00 en mm
DESCASC
Precipitaciones de 06:00 a 12:00 en mm
DESCASC
Precipitaciones de 12:00 a 18:00 en mm
DESCASC
Precipitaciones de 18:00 a 24:00 en mm
DESCASC
17-03-2019 28.1 (13:50) 8.3 (05:30) 18.2 -- (--) -- (--) 0 0 0 0 0
16-03-2019 26.7 (13:50) 7.3 (06:50) 17 -- (--) -- (--) 0 0 0 0 0
15-03-2019 24.3 (14:20) 6.5 (05:40) 15.4 -- (--) -- (--) 0 0 0 0 0
14-03-2019 20.6 (14:20) 6 (00:00) 13.3 -- (--) -- (--) 0 0 0 0 0
13-03-2019 22.6 (14:20) 9.7 (00:00) 16.2 -- (--) -- (--) 0 0 0 0 0
12-03-2019 20.3 (14:00) 6.2 (00:00) 13.2 -- (--) -- (--) 0 0 0 0 0
11-03-2019 20.4 (13:20) 8.7 (00:00) 14.5 -- (--) -- (--) 0 0 0 0 0
10-03-2019 22.7 (12:20) 8.3 (00:00) 15.5 -- (--) -- (--) 0 0 0 0 0
09-03-2019 22.1 (14:10) 6.1 (00:00) 14.1 -- (--) -- (--) 0 0 0 0 0
08-03-2019 21.2 (16:50) 4.9 (00:00) 13.1 -- (--) -- (--) 0 0 0 0 0
07-03-2019 19.4 (14:20) 9.1 (00:00) 14.3 -- (--) -- (--) 0 0 0 0 0
06-03-2019 20.2 (18:20) 9.8 (00:00) 15 -- (--) -- (--) 0 0 0 0 0
05-03-2019 22 (13:10) 8.3 (00:00) 15.2 -- (--) -- (--) 0 0 0 0 0
04-03-2019 24.4 (13:00) 7.7 (00:00) 16 -- (--) -- (--) 0 0 0 0 0
03-03-2019 24.6 (14:30) 6.6 (00:00) 15.6 -- (--) -- (--) 0 0 0 0 0
02-03-2019 23.5 (14:20) 9.3 (00:00) 16.4 -- (--) -- (--) 0 0 0 0 0
01-03-2019 22.5 (14:40) 5.3 (00:00) 13.9 -- (--) -- (--) 0 0 0 0 0
28-02-2019 26.1 (13:20) 4.8 (00:00) 15.5 -- (--) -- (--) 0 0 0 0 0
27-02-2019 21.4 (14:20) 4.2 (00:00) 12.8 -- (--) -- (--) 0 0 0 0 0
26-02-2019 20.9 (14:10) 3.9 (00:00) 12.4 -- (--) -- (--) 0 0 0 0 0
25-02-2019 18.9 (13:50) 6.4 (00:00) 12.6 -- (--) -- (--) 0 0 0 0 0
24-02-2019 18.1 (14:50) 4.5 (00:00) 11.3 -- (--) -- (--) 0 0 0 0 0
23-02-2019 25.9 (14:00) 5.7 (00:00) 15.8 -- (--) -- (--) 0 0 0 0 0
22-02-2019 20.2 (15:30) 3.9 (00:00) 12.1 -- (--) -- (--) 0 0 0 0 0
21-02-2019 16.5 (16:00) 3.5 (00:00) 10 -- (--) -- (--) 0 0 0 0 0
20-02-2019 17.1 (14:10) 6.1 (00:00) 11.6 -- (--) -- (--) 0 0 0 0 0

Gráficas

Temp. máximas Temp. mínimas Temp. medias Precipitaciones Rachas de viento máximas Velocidades máximas media en intervalos de 10 minutos

Datos horarios

Fecha y hora oficial Temperatura (ºC) Velocidad del viento (km/h) Dirección del viento Racha (km/h) Dirección de racha Precipitación (mm) Presión (hPa) Tendencia (hPa) Humedad (%)
2019-03-21 23:00:00 9.1 -- -- -- -- 0 -- -- 73
2019-03-21 22:00:00 10.1 -- -- -- -- 0 -- -- 69
2019-03-21 21:00:00 11.2 -- -- -- -- 0 -- -- 65
2019-03-21 20:00:00 12.4 -- -- -- -- 0 -- -- 62
2019-03-21 19:00:00 13.5 -- -- -- -- 0 -- -- 57
2019-03-21 18:00:00 14.8 -- -- -- -- 0 -- -- 56
2019-03-21 17:00:00 16 -- -- -- -- 0 -- -- 49
2019-03-21 16:00:00 16.7 -- -- -- -- 0 -- -- 43
2019-03-21 15:00:00 17.2 -- -- -- -- 0 -- -- 37
2019-03-21 14:00:00 16.8 -- -- -- -- 0 -- -- 37
2019-03-21 13:00:00 15.2 -- -- -- -- 0 -- -- 44
2019-03-21 12:00:00 14.4 -- -- -- -- 0 -- -- 45
2019-03-21 11:00:00 13.6 -- -- -- -- 0 -- -- 47
2019-03-21 10:00:00 12.6 -- -- -- -- 0 -- -- 52
2019-03-21 09:00:00 11.2 -- -- -- -- 0 -- -- 56
2019-03-21 08:00:00 8.6 -- -- -- -- 0 -- -- 64
2019-03-21 07:00:00 7.5 -- -- -- -- 0 -- -- 66
2019-03-21 06:00:00 7.5 -- -- -- -- 0 -- -- 66
2019-03-21 05:00:00 7.4 -- -- -- -- 0 -- -- 68
2019-03-21 04:00:00 7.9 -- -- -- -- 0 -- -- 72
2019-03-21 03:00:00 8.3 -- -- -- -- 0 -- -- 74
2019-03-21 02:00:00 7.9 -- -- -- -- 0 -- -- 77
2019-03-21 01:00:00 7.2 -- -- -- -- 0 -- -- 83
2019-03-21 00:00:00 6.2 -- -- -- -- 0 -- -- 88
2019-03-20 23:00:00 6.9 -- -- -- -- 0 -- -- 85
2019-03-20 22:00:00 8.2 -- -- -- -- 0 -- -- 80
2019-03-20 21:00:00 8.5 -- -- -- -- 0 -- -- 82
2019-03-20 20:00:00 9.3 -- -- -- -- 0 -- -- 81
2019-03-20 19:00:00 10.9 -- -- -- -- 0.2 -- -- 74
2019-03-20 18:00:00 12.8 -- -- -- -- 0 -- -- 60
2019-03-20 17:00:00 12.3 -- -- -- -- 0 -- -- 64
2019-03-20 16:00:00 14.6 -- -- -- -- 0 -- -- 55
2019-03-20 15:00:00 14.2 -- -- -- -- 0 -- -- 58
2019-03-20 14:00:00 13.7 -- -- -- -- 0 -- -- 57
2019-03-20 13:00:00 12.5 -- -- -- -- 0.4 -- -- 71
2019-03-20 12:00:00 10 -- -- -- -- 1 -- -- 82
2019-03-20 11:00:00 13.9 -- -- -- -- 0 -- -- 52
2019-03-20 10:00:00 12.5 -- -- -- -- 0 -- -- 54
2019-03-20 09:00:00 10.4 -- -- -- -- 0 -- -- 66
2019-03-20 08:00:00 8 -- -- -- -- 0 -- -- 81
2019-03-20 07:00:00 7.5 -- -- -- -- 0 -- -- 81
2019-03-20 06:00:00 7.8 -- -- -- -- 0 -- -- 78
2019-03-20 05:00:00 7.9 -- -- -- -- 0 -- -- 79
2019-03-20 04:00:00 9.2 -- -- -- -- 0 -- -- 75
2019-03-20 03:00:00 9.8 -- -- -- -- 0 -- -- 73
2019-03-20 02:00:00 10 -- -- -- -- 0 -- -- 73
2019-03-20 01:00:00 10.2 -- -- -- -- 0 -- -- 73
2019-03-20 00:00:00 10.9 -- -- -- -- 0 -- -- 71
2019-03-19 23:00:00 11.1 -- -- -- -- 0 -- -- 70
2019-03-19 22:00:00 10.6 -- -- -- -- 0 -- -- 71
2019-03-19 21:00:00 10.6 -- -- -- -- 0 -- -- 68
2019-03-19 20:00:00 11.6 -- -- -- -- 0 -- -- 66
2019-03-19 19:00:00 12.6 -- -- -- -- 0 -- -- 67
2019-03-19 18:00:00 13.7 -- -- -- -- 0 -- -- 60
2019-03-19 17:00:00 13.7 -- -- -- -- 0 -- -- 57
2019-03-19 16:00:00 14.4 -- -- -- -- 0 -- -- 62
2019-03-19 15:00:00 14.8 -- -- -- -- 0 -- -- 58
2019-03-19 14:00:00 16.7 -- -- -- -- 0 -- -- 36
2019-03-19 13:00:00 15.7 -- -- -- -- 0 -- -- 47
2019-03-19 12:00:00 15 -- -- -- -- 0 -- -- 51
2019-03-19 11:00:00 13.5 -- -- -- -- 0 -- -- 64
2019-03-19 10:00:00 11.7 -- -- -- -- 0 -- -- 82
2019-03-19 09:00:00 10.5 -- -- -- -- 0 -- -- 81
2019-03-19 08:00:00 9.3 -- -- -- -- 0 -- -- 84
2019-03-19 07:00:00 9.2 -- -- -- -- 0 -- -- 84
2019-03-19 06:00:00 10 -- -- -- -- 0 -- -- 82
2019-03-19 05:00:00 10.1 -- -- -- -- 0 -- -- 82
2019-03-19 04:00:00 10.5 -- -- -- -- 0 -- -- 80
2019-03-19 03:00:00 10.6 -- -- -- -- 0 -- -- 80
2019-03-19 02:00:00 11.5 -- -- -- -- 0 -- -- 78
2019-03-19 01:00:00 11 -- -- -- -- 0 -- -- 79
2019-03-19 00:00:00 11.6 -- -- -- -- 0 -- -- 76
2019-03-18 23:00:00 11.5 -- -- -- -- 0 -- -- 77
2019-03-18 22:00:00 10.8 -- -- -- -- 0 -- -- 77
2019-03-18 21:00:00 11.3 -- -- -- -- 0 -- -- 75
2019-03-18 20:00:00 12.4 -- -- -- -- 0 -- -- 73
2019-03-18 19:00:00 13.4 -- -- -- -- 0 -- -- 68
2019-03-18 18:00:00 14.8 -- -- -- -- 0 -- -- 65
2019-03-18 17:00:00 14.8 -- -- -- -- 0 -- -- 63
2019-03-18 16:00:00 15 -- -- -- -- 0 -- -- 65
2019-03-18 15:00:00 15.2 -- -- -- -- 0 -- -- 64
2019-03-18 14:00:00 17.1 -- -- -- -- 0 -- -- 51
2019-03-18 13:00:00 16.6 -- -- -- -- 0 -- -- 57
2019-03-18 12:00:00 16.2 -- -- -- -- 0 -- -- 57
2019-03-18 11:00:00 16.1 -- -- -- -- 0 -- -- 58
2019-03-18 10:00:00 15.3 -- -- -- -- 0 -- -- 65
2019-03-18 09:00:00 14.2 -- -- -- -- 0 -- -- 72
2019-03-18 08:00:00 14.1 -- -- -- -- 0 -- -- 74
2019-03-18 07:00:00 14.1 -- -- -- -- 0 -- -- 73
2019-03-18 06:00:00 14 -- -- -- -- 0 -- -- 78
2019-03-18 05:00:00 13.6 -- -- -- -- 0 -- -- 73
2019-03-18 04:00:00 13.4 -- -- -- -- 0 -- -- 63
2019-03-18 03:00:00 13.7 -- -- -- -- 0 -- -- 65
2019-03-18 02:00:00 14.9 -- -- -- -- 0 -- -- 61
2019-03-18 01:00:00 15.6 -- -- -- -- 0 -- -- 57
2019-03-18 00:00:00 13.6 -- -- -- -- 0 -- -- 49
2019-03-17 23:00:00 14.9 -- -- -- -- 0 -- -- 48
2019-03-17 22:00:00 16.1 -- -- -- -- 0 -- -- 42
2019-03-17 21:00:00 17.3 -- -- -- -- 0 -- -- 38
2019-03-17 20:00:00 19.5 -- -- -- -- 0 -- -- 32
2019-03-17 19:00:00 21.4 -- -- -- -- 0 -- -- 34
2019-03-17 18:00:00 22.6 -- -- -- -- 0 -- -- 34
2019-03-17 17:00:00 24.3 -- -- -- -- 0 -- -- 31
2019-03-17 16:00:00 24.7 -- -- -- -- 0 -- -- 31
2019-03-17 15:00:00 26.8 -- -- -- -- 0 -- -- 24
2019-03-17 14:00:00 28.1 -- -- -- -- 0 -- -- 20
2019-03-17 13:00:00 27.1 -- -- -- -- 0 -- -- 20
2019-03-17 12:00:00 25.5 -- -- -- -- 0 -- -- 23
2019-03-17 11:00:00 23.8 -- -- -- -- 0 -- -- 25
2019-03-17 10:00:00 18.3 -- -- -- -- 0 -- -- 36
2019-03-17 09:00:00 13.4 -- -- -- -- 0 -- -- 44
2019-03-17 08:00:00 8.8 -- -- -- -- 0 -- -- 55
2019-03-17 07:00:00 9.4 -- -- -- -- 0 -- -- 52
2019-03-17 06:00:00 8.9 -- -- -- -- 0 -- -- 52
2019-03-17 05:00:00 9.1 -- -- -- -- 0 -- -- 52
2019-03-17 04:00:00 9.4 -- -- -- -- 0 -- -- 54
2019-03-17 03:00:00 8.9 -- -- -- -- 0 -- -- 61
2019-03-17 02:00:00 9.2 -- -- -- -- 0 -- -- 57
2019-03-17 01:00:00 10 -- -- -- -- 0 -- -- 56
2019-03-17 00:00:00 10.6 -- -- -- -- 0 -- -- 52
2019-03-16 23:00:00 11.9 -- -- -- -- 0 -- -- 49
2019-03-16 22:00:00 12.6 -- -- -- -- 0 -- -- 46
2019-03-16 21:00:00 14.7 -- -- -- -- 0 -- -- 40
2019-03-16 20:00:00 17.2 -- -- -- -- 0 -- -- 36
2019-03-16 19:00:00 18.7 -- -- -- -- 0 -- -- 34
2019-03-16 18:00:00 21.6 -- -- -- -- 0 -- -- 27
2019-03-16 17:00:00 24.4 -- -- -- -- 0 -- -- 20
2019-03-16 16:00:00 25 -- -- -- -- 0 -- -- 23
2019-03-16 15:00:00 25.4 -- -- -- -- 0 -- -- 21
2019-03-16 14:00:00 26.6 -- -- -- -- 0 -- -- 22
2019-03-16 13:00:00 25.4 -- -- -- -- 0 -- -- 26
2019-03-16 12:00:00 23.9 -- -- -- -- 0 -- -- 27
2019-03-16 11:00:00 20.8 -- -- -- -- 0 -- -- 31
2019-03-16 10:00:00 17.5 -- -- -- -- 0 -- -- 38
2019-03-16 09:00:00 12.3 -- -- -- -- 0 -- -- 49
2019-03-16 08:00:00 7.7 -- -- -- -- 0 -- -- 61
2019-03-16 07:00:00 7.5 -- -- -- -- 0 -- -- 61
2019-03-16 06:00:00 8.4 -- -- -- -- 0 -- -- 58
2019-03-16 05:00:00 8.8 -- -- -- -- 0 -- -- 57
2019-03-16 04:00:00 8.9 -- -- -- -- 0 -- -- 58
2019-03-16 03:00:00 9.5 -- -- -- -- 0 -- -- 57
2019-03-16 02:00:00 9.5 -- -- -- -- 0 -- -- 57
2019-03-16 01:00:00 10.8 -- -- -- -- 0 -- -- 55
2019-03-16 00:00:00 11.1 -- -- -- -- 0 -- -- 56
2019-03-15 23:00:00 11.7 -- -- -- -- 0 -- -- 55
2019-03-15 22:00:00 13.5 -- -- -- -- 0 -- -- 44
2019-03-15 21:00:00 15.3 -- -- -- -- 0 -- -- 40
2019-03-15 20:00:00 17.3 -- -- -- -- 0 -- -- 35
2019-03-15 19:00:00 19.5 -- -- -- -- 0 -- -- 32
2019-03-15 18:00:00 21.9 -- -- -- -- 0 -- -- 33
2019-03-15 17:00:00 23.3 -- -- -- -- 0 -- -- 28
2019-03-15 16:00:00 23.7 -- -- -- -- 0 -- -- 28
2019-03-15 15:00:00 24.1 -- -- -- -- 0 -- -- 26
2019-03-15 14:00:00 24.2 -- -- -- -- 0 -- -- 23
2019-03-15 13:00:00 22.8 -- -- -- -- 0 -- -- 23
2019-03-15 12:00:00 22.9 -- -- -- -- 0 -- -- 24
2019-03-15 11:00:00 21.4 -- -- -- -- 0 -- -- 27
2019-03-15 10:00:00 16.9 -- -- -- -- 0 -- -- 39
2019-03-15 09:00:00 12 -- -- -- -- 0 -- -- 47
2019-03-15 08:00:00 8.5 -- -- -- -- 0 -- -- 58
2019-03-15 07:00:00 7.4 -- -- -- -- 0 -- -- 65
2019-03-15 06:00:00 7.7 -- -- -- -- 0 -- -- 71
2019-03-15 05:00:00 7.5 -- -- -- -- 0 -- -- 83
2019-03-15 04:00:00 8.3 -- -- -- -- 0 -- -- 83
2019-03-15 03:00:00 8.5 -- -- -- -- 0 -- -- 84
2019-03-15 02:00:00 9.2 -- -- -- -- 0 -- -- 83
2019-03-15 01:00:00 9.9 -- -- -- -- 0 -- -- 80
2019-03-15 00:00:00 10.3 -- -- -- -- 0 -- -- 79
2019-03-14 23:00:00 10.7 -- -- -- -- 0 -- -- 81
2019-03-14 22:00:00 11.9 -- -- -- -- 0 -- -- 78
2019-03-14 21:00:00 13 -- -- -- -- 0 -- -- 76
2019-03-14 20:00:00 13.9 -- -- -- -- 0 -- -- 74
2019-03-14 19:00:00 14.8 -- -- -- -- 0 -- -- 65
2019-03-14 18:00:00 16.3 -- -- -- -- 0 -- -- 56
2019-03-14 17:00:00 17.6 -- -- -- -- 0 -- -- 43
2019-03-14 16:00:00 18.3 -- -- -- -- 0 -- -- 37
2019-03-14 15:00:00 19.6 -- -- -- -- 0 -- -- 33
2019-03-14 14:00:00 20.5 -- -- -- -- 0 -- -- 24
2019-03-14 13:00:00 18.4 -- -- -- -- 0 -- -- 26
2019-03-14 12:00:00 18.3 -- -- -- -- 0 -- -- 24
2019-03-14 11:00:00 17.3 -- -- -- -- 0 -- -- 29
2019-03-14 10:00:00 15.3 -- -- -- -- 0 -- -- 39
2019-03-14 09:00:00 11.4 -- -- -- -- 0 -- -- 53
2019-03-14 08:00:00 6.5 -- -- -- -- 0 -- -- 76
2019-03-14 07:00:00 6.9 -- -- -- -- 0 -- -- 75
2019-03-14 06:00:00 6.4 -- -- -- -- 0 -- -- 83
2019-03-14 05:00:00 6.9 -- -- -- -- 0 -- -- 84
2019-03-14 04:00:00 7.5 -- -- -- -- 0 -- -- 85
2019-03-14 03:00:00 7.8 -- -- -- -- 0 -- -- 82
2019-03-14 02:00:00 8.4 -- -- -- -- 0 -- -- 80
2019-03-14 01:00:00 9.2 -- -- -- -- 0 -- -- 80
2019-03-14 00:00:00 9.7 -- -- -- -- 0 -- -- 79
2019-03-13 23:00:00 11.4 -- -- -- -- 0 -- -- 76
2019-03-13 22:00:00 12.6 -- -- -- -- 0 -- -- 71
2019-03-13 21:00:00 13.7 -- -- -- -- 0 -- -- 70
2019-03-13 20:00:00 14.6 -- -- -- -- 0 -- -- 67
2019-03-13 19:00:00 15.7 -- -- -- -- 0 -- -- 61
2019-03-13 18:00:00 17 -- -- -- -- 0 -- -- 58
2019-03-13 17:00:00 18.1 -- -- -- -- 0 -- -- 58
2019-03-13 16:00:00 19.4 -- -- -- -- 0 -- -- 57
2019-03-13 15:00:00 20.8 -- -- -- -- 0 -- -- 52
2019-03-13 14:00:00 22.3 -- -- -- -- 0 -- -- 34
2019-03-13 13:00:00 22.1 -- -- -- -- 0 -- -- 35
2019-03-13 12:00:00 21.3 -- -- -- -- 0 -- -- 36
2019-03-13 11:00:00 19.8 -- -- -- -- 0 -- -- 41
2019-03-13 10:00:00 19.3 -- -- -- -- 0 -- -- 44
2019-03-13 09:00:00 17.9 -- -- -- -- 0 -- -- 51
2019-03-13 08:00:00 10.7 -- -- -- -- 0 -- -- 76
2019-03-13 07:00:00 10.8 -- -- -- -- 0 -- -- 74
2019-03-13 06:00:00 11 -- -- -- -- 0 -- -- 74
2019-03-13 05:00:00 11.3 -- -- -- -- 0 -- -- 73
2019-03-13 04:00:00 11.9 -- -- -- -- 0 -- -- 71
2019-03-13 03:00:00 12.1 -- -- -- -- 0 -- -- 75
2019-03-13 02:00:00 12.3 -- -- -- -- 0 -- -- 78
2019-03-13 01:00:00 13 -- -- -- -- 0 -- -- 79
2019-03-13 00:00:00 12.8 -- -- -- -- 0 -- -- 86
2019-03-12 23:00:00 12.9 -- -- -- -- 0 -- -- 83
2019-03-12 22:00:00 13.7 -- -- -- -- 0 -- -- 79
2019-03-12 21:00:00 14.7 -- -- -- -- 0 -- -- 69
2019-03-12 20:00:00 14.8 -- -- -- -- 0 -- -- 73
2019-03-12 19:00:00 16.2 -- -- -- -- 0 -- -- 63
2019-03-12 18:00:00 18 -- -- -- -- 0 -- -- 52
2019-03-12 17:00:00 19.8 -- -- -- -- 0 -- -- 47
2019-03-12 16:00:00 19.8 -- -- -- -- 0 -- -- 48
2019-03-12 15:00:00 19.6 -- -- -- -- 0 -- -- 51
2019-03-12 14:00:00 20.3 -- -- -- -- 0 -- -- 49
2019-03-12 13:00:00 19.9 -- -- -- -- 0 -- -- 44
2019-03-12 12:00:00 19.8 -- -- -- -- 0 -- -- 44
2019-03-12 11:00:00 17.8 -- -- -- -- 0 -- -- 53
2019-03-12 10:00:00 14.3 -- -- -- -- 0 -- -- 63
2019-03-12 09:00:00 10.9 -- -- -- -- 0 -- -- 75
2019-03-12 08:00:00 7.3 -- -- -- -- 0 -- -- 87
2019-03-12 07:00:00 6.2 -- -- -- -- 0 -- -- 85
2019-03-12 06:00:00 6.5 -- -- -- -- 0 -- -- 85
2019-03-12 05:00:00 7 -- -- -- -- 0 -- -- 85
2019-03-12 04:00:00 7.2 -- -- -- -- 0 -- -- 84
2019-03-12 03:00:00 7.9 -- -- -- -- 0 -- -- 83
2019-03-12 02:00:00 9 -- -- -- -- 0 -- -- 82
2019-03-12 01:00:00 9.5 -- -- -- -- 0 -- -- 79
2019-03-12 00:00:00 10.3 -- -- -- -- 0 -- -- 79
2019-03-11 23:00:00 11.6 -- -- -- -- 0 -- -- 77
2019-03-11 22:00:00 12.5 -- -- -- -- 0 -- -- 74
2019-03-11 21:00:00 13.2 -- -- -- -- 0 -- -- 72
2019-03-11 20:00:00 14.9 -- -- -- -- 0 -- -- 71
2019-03-11 19:00:00 15.8 -- -- -- -- 0 -- -- 67
2019-03-11 18:00:00 17.3 -- -- -- -- 0 -- -- 64
2019-03-11 17:00:00 18.6 -- -- -- -- 0 -- -- 55
2019-03-11 16:00:00 19.4 -- -- -- -- 0 -- -- 52
2019-03-11 15:00:00 19.9 -- -- -- -- 0 -- -- 50
2019-03-11 14:00:00 20.4 -- -- -- -- 0 -- -- 49
2019-03-11 13:00:00 20.1 -- -- -- -- 0 -- -- 49
2019-03-11 12:00:00 19.7 -- -- -- -- 0 -- -- 51
2019-03-11 11:00:00 19.3 -- -- -- -- 0 -- -- 54
2019-03-11 10:00:00 16.8 -- -- -- -- 0 -- -- 62
2019-03-11 09:00:00 13.2 -- -- -- -- 0 -- -- 64
2019-03-11 08:00:00 8.8 -- -- -- -- 0 -- -- 74
2019-03-11 07:00:00 9 -- -- -- -- 0 -- -- 71
2019-03-11 06:00:00 9.7 -- -- -- -- 0 -- -- 70
2019-03-11 05:00:00 9.7 -- -- -- -- 0 -- -- 75
2019-03-11 04:00:00 9.3 -- -- -- -- 0 -- -- 79
2019-03-11 03:00:00 9.7 -- -- -- -- 0 -- -- 78
2019-03-11 02:00:00 9.7 -- -- -- -- 0 -- -- 78
2019-03-11 01:00:00 11 -- -- -- -- 0 -- -- 72
2019-03-11 00:00:00 11.9 -- -- -- -- 0 -- -- 70
2019-03-10 23:00:00 13 -- -- -- -- 0 -- -- 64
2019-03-10 22:00:00 14.4 -- -- -- -- 0 -- -- 59
2019-03-10 21:00:00 16.2 -- -- -- -- 0 -- -- 53
2019-03-10 20:00:00 17.2 -- -- -- -- 0 -- -- 51
2019-03-10 19:00:00 19 -- -- -- -- 0 -- -- 46
2019-03-10 18:00:00 20.6 -- -- -- -- 0 -- -- 41
2019-03-10 17:00:00 20.4 -- -- -- -- 0 -- -- 43
2019-03-10 16:00:00 20.2 -- -- -- -- 0 -- -- 44
2019-03-10 15:00:00 21.4 -- -- -- -- 0 -- -- 42
2019-03-10 14:00:00 20.9 -- -- -- -- 0 -- -- 39
2019-03-10 13:00:00 22.5 -- -- -- -- 0 -- -- 35
2019-03-10 12:00:00 21.9 -- -- -- -- 0 -- -- 35
2019-03-10 11:00:00 19.6 -- -- -- -- 0 -- -- 41
2019-03-10 10:00:00 15.3 -- -- -- -- 0 -- -- 49
2019-03-10 09:00:00 11.5 -- -- -- -- 0 -- -- 57
2019-03-10 08:00:00 8.4 -- -- -- -- 0 -- -- 66
2019-03-10 07:00:00 9.1 -- -- -- -- 0 -- -- 64
2019-03-10 06:00:00 8.4 -- -- -- -- 0 -- -- 67
2019-03-10 05:00:00 8.6 -- -- -- -- 0 -- -- 66
2019-03-10 04:00:00 9.2 -- -- -- -- 0 -- -- 65
2019-03-10 03:00:00 9.7 -- -- -- -- 0 -- -- 64
2019-03-10 02:00:00 9.1 -- -- -- -- 0 -- -- 72
2019-03-10 01:00:00 8.9 -- -- -- -- 0 -- -- 68
2019-03-10 00:00:00 9.6 -- -- -- -- 0 -- -- 66
2019-03-09 23:00:00 10.8 -- -- -- -- 0 -- -- 67
2019-03-09 22:00:00 12.1 -- -- -- -- 0 -- -- 68
2019-03-09 21:00:00 13.6 -- -- -- -- 0 -- -- 61
2019-03-09 20:00:00 14.9 -- -- -- -- 0 -- -- 52
2019-03-09 19:00:00 17.3 -- -- -- -- 0 -- -- 45
2019-03-09 18:00:00 19.7 -- -- -- -- 0 -- -- 36
2019-03-09 17:00:00 20.6 -- -- -- -- 0 -- -- 28
2019-03-09 16:00:00 20.6 -- -- -- -- 0 -- -- 28
2019-03-09 15:00:00 20.8 -- -- -- -- 0 -- -- 33
2019-03-09 14:00:00 22 -- -- -- -- 0 -- -- 32
2019-03-09 13:00:00 20.3 -- -- -- -- 0 -- -- 35
2019-03-09 12:00:00 19.9 -- -- -- -- 0 -- -- 36
2019-03-09 11:00:00 18.1 -- -- -- -- 0 -- -- 39
2019-03-09 10:00:00 13.6 -- -- -- -- 0 -- -- 53
2019-03-09 09:00:00 9.7 -- -- -- -- 0 -- -- 63
2019-03-09 08:00:00 6.4 -- -- -- -- 0 -- -- 73
2019-03-09 07:00:00 6.2 -- -- -- -- 0 -- -- 73
2019-03-09 06:00:00 7.1 -- -- -- -- 0 -- -- 71
2019-03-09 05:00:00 6.6 -- -- -- -- 0 -- -- 74
2019-03-09 04:00:00 6.6 -- -- -- -- 0 -- -- 75
2019-03-09 03:00:00 7.1 -- -- -- -- 0 -- -- 75
2019-03-09 02:00:00 7.3 -- -- -- -- 0 -- -- 75
2019-03-09 01:00:00 8.7 -- -- -- -- 0 -- -- 70
2019-03-09 00:00:00 9.1 -- -- -- -- 0 -- -- 71
2019-03-08 23:00:00 10.1 -- -- -- -- 0 -- -- 66
2019-03-08 22:00:00 11.5 -- -- -- -- 0 -- -- 65
2019-03-08 21:00:00 13.3 -- -- -- -- 0 -- -- 58
2019-03-08 20:00:00 14.5 -- -- -- -- 0 -- -- 45
2019-03-08 19:00:00 16.1 -- -- -- -- 0 -- -- 56
2019-03-08 18:00:00 18.1 -- -- -- -- 0 -- -- 44
2019-03-08 17:00:00 20.1 -- -- -- -- 0 -- -- 39
2019-03-08 16:00:00 20.7 -- -- -- -- 0 -- -- 33
2019-03-08 15:00:00 19.9 -- -- -- -- 0 -- -- 34
2019-03-08 14:00:00 19.6 -- -- -- -- 0 -- -- 36
2019-03-08 13:00:00 18.7 -- -- -- -- 0 -- -- 37
2019-03-08 12:00:00 17.2 -- -- -- -- 0 -- -- 42
2019-03-08 11:00:00 16.4 -- -- -- -- 0 -- -- 45
2019-03-08 10:00:00 13.7 -- -- -- -- 0 -- -- 44
2019-03-08 09:00:00 9 -- -- -- -- 0 -- -- 54
2019-03-08 08:00:00 5.2 -- -- -- -- 0 -- -- 66
2019-03-08 07:00:00 5.6 -- -- -- -- 0 -- -- 65
2019-03-08 06:00:00 5.2 -- -- -- -- 0 -- -- 71
2019-03-08 05:00:00 5.5 -- -- -- -- 0 -- -- 71
2019-03-08 04:00:00 6.1 -- -- -- -- 0 -- -- 70
2019-03-08 03:00:00 7 -- -- -- -- 0 -- -- 70
2019-03-08 02:00:00 7.8 -- -- -- -- 0 -- -- 69
2019-03-08 01:00:00 8.8 -- -- -- -- 0 -- -- 69
2019-03-08 00:00:00 9.4 -- -- -- -- 0 -- -- 71
2019-03-07 23:00:00 10.3 -- -- -- -- 0 -- -- 69
2019-03-07 22:00:00 11.2 -- -- -- -- 0 -- -- 65
2019-03-07 21:00:00 12.7 -- -- -- -- 0 -- -- 62
2019-03-07 20:00:00 13.5 -- -- -- -- 0 -- -- 68
2019-03-07 19:00:00 14.6 -- -- -- -- 0 -- -- 61
2019-03-07 18:00:00 15.8 -- -- -- -- 0 -- -- 55
2019-03-07 17:00:00 16.8 -- -- -- -- 0 -- -- 49
2019-03-07 16:00:00 18.9 -- -- -- -- 0 -- -- 35
2019-03-07 15:00:00 18.9 -- -- -- -- 0 -- -- 36
2019-03-07 14:00:00 19.2 -- -- -- -- 0 -- -- 31
2019-03-07 13:00:00 18.1 -- -- -- -- 0 -- -- 36
2019-03-07 12:00:00 17.2 -- -- -- -- 0 -- -- 37
2019-03-07 11:00:00 15.8 -- -- -- -- 0 -- -- 42
2019-03-07 10:00:00 12.5 -- -- -- -- 0 -- -- 53
2019-03-07 09:00:00 10.3 -- -- -- -- 0 -- -- 60
2019-03-07 08:00:00 9.3 -- -- -- -- 0 -- -- 65
2019-03-07 07:00:00 9.6 -- -- -- -- 0 -- -- 63
2019-03-07 06:00:00 10.5 -- -- -- -- 0 -- -- 59
2019-03-07 05:00:00 12.1 -- -- -- -- 0 -- -- 52
2019-03-07 04:00:00 13.2 -- -- -- -- 0 -- -- 49
2019-03-07 03:00:00 13.7 -- -- -- -- 0 -- -- 46
2019-03-07 02:00:00 13.8 -- -- -- -- 0 -- -- 44
2019-03-07 01:00:00 14.9 -- -- -- -- 0 -- -- 42
2019-03-07 00:00:00 15.6 -- -- -- -- 0 -- -- 45
2019-03-06 23:00:00 16.6 -- -- -- -- 0 -- -- 43
2019-03-06 22:00:00 17.2 -- -- -- -- 0 -- -- 48
2019-03-06 21:00:00 18.3 -- -- -- -- 0 -- -- 46
2019-03-06 20:00:00 18.9 -- -- -- -- 0 -- -- 46
2019-03-06 19:00:00 19.8 -- -- -- -- 0 -- -- 49
2019-03-06 18:00:00 19.7 -- -- -- -- 0 -- -- 52
2019-03-06 17:00:00 19.9 -- -- -- -- 0 -- -- 48
2019-03-06 16:00:00 19.8 -- -- -- -- 0 -- -- 46
2019-03-06 15:00:00 19.3 -- -- -- -- 0 -- -- 51
2019-03-06 14:00:00 19.1 -- -- -- -- 0 -- -- 58
2019-03-06 13:00:00 17.6 -- -- -- -- 0 -- -- 69
2019-03-06 12:00:00 17.1 -- -- -- -- 0 -- -- 70
2019-03-06 11:00:00 15.8 -- -- -- -- 0 -- -- 80
2019-03-06 10:00:00 13.3 -- -- -- -- 0 -- -- 87
2019-03-06 09:00:00 10.9 -- -- -- -- 0 -- -- 89
2019-03-06 08:00:00 10.2 -- -- -- -- 0 -- -- 88
2019-03-06 07:00:00 10 -- -- -- -- 0 -- -- 88
2019-03-06 06:00:00 10.2 -- -- -- -- 0 -- -- 89
2019-03-06 05:00:00 10.3 -- -- -- -- 0 -- -- 90
2019-03-06 04:00:00 10.3 -- -- -- -- 0 -- -- 89
2019-03-06 03:00:00 10.5 -- -- -- -- 0 -- -- 87
2019-03-06 02:00:00 11.1 -- -- -- -- 0 -- -- 87
2019-03-06 01:00:00 11.1 -- -- -- -- 0 -- -- 79
2019-03-06 00:00:00 11.7 -- -- -- -- 0 -- -- 74
2019-03-05 23:00:00 12.8 -- -- -- -- 0 -- -- 72
2019-03-05 22:00:00 13.9 -- -- -- -- 0 -- -- 70
2019-03-05 21:00:00 15.3 -- -- -- -- 0 -- -- 67
2019-03-05 20:00:00 16.7 -- -- -- -- 0 -- -- 62
2019-03-05 19:00:00 17.8 -- -- -- -- 0 -- -- 60
2019-03-05 18:00:00 19.8 -- -- -- -- 0 -- -- 49
2019-03-05 17:00:00 20.4 -- -- -- -- 0 -- -- 47
2019-03-05 16:00:00 20.1 -- -- -- -- 0 -- -- 51
2019-03-05 15:00:00 20.4 -- -- -- -- 0 -- -- 54
2019-03-05 14:00:00 21.8 -- -- -- -- 0 -- -- 47
2019-03-05 13:00:00 21.9 -- -- -- -- 0 -- -- 42
2019-03-05 12:00:00 19.5 -- -- -- -- 0 -- -- 50
2019-03-05 11:00:00 17.5 -- -- -- -- 0 -- -- 55
2019-03-05 10:00:00 15.8 -- -- -- -- 0 -- -- 62
2019-03-05 09:00:00 12.3 -- -- -- -- 0 -- -- 70
2019-03-05 08:00:00 8.8 -- -- -- -- 0 -- -- 79
2019-03-05 07:00:00 8.5 -- -- -- -- 0 -- -- 76
2019-03-05 06:00:00 8.8 -- -- -- -- 0 -- -- 78
2019-03-05 05:00:00 9.1 -- -- -- -- 0 -- -- 78
2019-03-05 04:00:00 10.2 -- -- -- -- 0 -- -- 74
2019-03-05 03:00:00 10.2 -- -- -- -- 0 -- -- 77
2019-03-05 02:00:00 10.7 -- -- -- -- 0 -- -- 75
2019-03-05 01:00:00 11.4 -- -- -- -- 0 -- -- 77
2019-03-05 00:00:00 12 -- -- -- -- 0 -- -- 75
2019-03-04 23:00:00 13 -- -- -- -- 0 -- -- 84
2019-03-04 22:00:00 14.1 -- -- -- -- 0 -- -- 76
2019-03-04 21:00:00 15.8 -- -- -- -- 0 -- -- 67
2019-03-04 20:00:00 17.5 -- -- -- -- 0 -- -- 60
2019-03-04 19:00:00 19.3 -- -- -- -- 0 -- -- 49
2019-03-04 18:00:00 20.9 -- -- -- -- 0 -- -- 41
2019-03-04 17:00:00 21.4 -- -- -- -- 0 -- -- 37
2019-03-04 16:00:00 22.1 -- -- -- -- 0 -- -- 37
2019-03-04 15:00:00 22 -- -- -- -- 0 -- -- 38
2019-03-04 14:00:00 23.2 -- -- -- -- 0 -- -- 34
2019-03-04 13:00:00 24.4 -- -- -- -- 0 -- -- 31
2019-03-04 12:00:00 23 -- -- -- -- 0 -- -- 32
2019-03-04 11:00:00 20.9 -- -- -- -- 0 -- -- 35
2019-03-04 10:00:00 16.3 -- -- -- -- 0 -- -- 46
2019-03-04 09:00:00 11.2 -- -- -- -- 0 -- -- 57
2019-03-04 08:00:00 8.7 -- -- -- -- 0 -- -- 62
2019-03-04 07:00:00 7.9 -- -- -- -- 0 -- -- 65
2019-03-04 06:00:00 7.8 -- -- -- -- 0 -- -- 68
2019-03-04 05:00:00 8.1 -- -- -- -- 0 -- -- 70
2019-03-04 04:00:00 8.2 -- -- -- -- 0 -- -- 76
2019-03-04 03:00:00 8.7 -- -- -- -- 0 -- -- 81
2019-03-04 02:00:00 9.1 -- -- -- -- 0 -- -- 74
2019-03-04 01:00:00 9.7 -- -- -- -- 0 -- -- 70
2019-03-04 00:00:00 11.9 -- -- -- -- 0 -- -- 63
2019-03-03 23:00:00 12 -- -- -- -- 0 -- -- 59
2019-03-03 22:00:00 14 -- -- -- -- 0 -- -- 53
2019-03-03 21:00:00 15.5 -- -- -- -- 0 -- -- 43
2019-03-03 20:00:00 17.8 -- -- -- -- 0 -- -- 38
2019-03-03 19:00:00 18.6 -- -- -- -- 0 -- -- 38
2019-03-03 18:00:00 21 -- -- -- -- 0 -- -- 35
2019-03-03 17:00:00 22 -- -- -- -- 0 -- -- 33
2019-03-03 16:00:00 23.1 -- -- -- -- 0 -- -- 34
2019-03-03 15:00:00 24.2 -- -- -- -- 0 -- -- 30
2019-03-03 14:00:00 24.5 -- -- -- -- 0 -- -- 37
2019-03-03 13:00:00 24 -- -- -- -- 0 -- -- 27
2019-03-03 12:00:00 22.7 -- -- -- -- 0 -- -- 30
2019-03-03 11:00:00 19 -- -- -- -- 0 -- -- 40
2019-03-03 10:00:00 14.6 -- -- -- -- 0 -- -- 53
2019-03-03 09:00:00 10.6 -- -- -- -- 0 -- -- 61
2019-03-03 08:00:00 6.9 -- -- -- -- 0 -- -- 76
2019-03-03 07:00:00 7.3 -- -- -- -- 0 -- -- 75
2019-03-03 06:00:00 8.5 -- -- -- -- 0 -- -- 71
2019-03-03 05:00:00 9.3 -- -- -- -- 0 -- -- 69
2019-03-03 04:00:00 9.3 -- -- -- -- 0 -- -- 72
2019-03-03 03:00:00 9.8 -- -- -- -- 0 -- -- 72
2019-03-03 02:00:00 10.1 -- -- -- -- 0 -- -- 74
2019-03-03 01:00:00 9.4 -- -- -- -- 0 -- -- 78
2019-03-03 00:00:00 10 -- -- -- -- 0 -- -- 75
2019-03-02 23:00:00 11.2 -- -- -- -- 0 -- -- 77
2019-03-02 22:00:00 12.2 -- -- -- -- 0 -- -- 77
2019-03-02 21:00:00 13.7 -- -- -- -- 0 -- -- 76
2019-03-02 20:00:00 15.1 -- -- -- -- 0 -- -- 74
2019-03-02 19:00:00 16.5 -- -- -- -- 0 -- -- 67
2019-03-02 18:00:00 18.8 -- -- -- -- 0 -- -- 60
2019-03-02 17:00:00 20.7 -- -- -- -- 0 -- -- 48
2019-03-02 16:00:00 21.4 -- -- -- -- 0 -- -- 44
2019-03-02 15:00:00 22.8 -- -- -- -- 0 -- -- 32
2019-03-02 14:00:00 22.9 -- -- -- -- 0 -- -- 33
2019-03-02 13:00:00 22.9 -- -- -- -- 0 -- -- 33
2019-03-02 12:00:00 21.6 -- -- -- -- 0 -- -- 41
2019-03-02 11:00:00 19.2 -- -- -- -- 0 -- -- 57
2019-03-02 10:00:00 16.6 -- -- -- -- 0 -- -- 70
2019-03-02 09:00:00 13.5 -- -- -- -- 0 -- -- 80
2019-03-02 08:00:00 13 -- -- -- -- 0 -- -- 63
2019-03-02 07:00:00 14.3 -- -- -- -- 0 -- -- 48
2019-03-02 06:00:00 13.2 -- -- -- -- 0 -- -- 54
2019-03-02 05:00:00 12.1 -- -- -- -- 0 -- -- 58
2019-03-02 04:00:00 10.1 -- -- -- -- 0 -- -- 70
2019-03-02 03:00:00 9.8 -- -- -- -- 0 -- -- 74
2019-03-02 02:00:00 9.5 -- -- -- -- 0 -- -- 76
2019-03-02 01:00:00 9.7 -- -- -- -- 0 -- -- 76
2019-03-02 00:00:00 11 -- -- -- -- 0 -- -- 75
2019-03-01 23:00:00 11.1 -- -- -- -- 0 -- -- 69
2019-03-01 22:00:00 12.3 -- -- -- -- 0 -- -- 63
2019-03-01 21:00:00 13.3 -- -- -- -- 0 -- -- 61
2019-03-01 20:00:00 15 -- -- -- -- 0 -- -- 58
2019-03-01 19:00:00 16.7 -- -- -- -- 0 -- -- 51
2019-03-01 18:00:00 18.3 -- -- -- -- 0 -- -- 46
2019-03-01 17:00:00 19.1 -- -- -- -- 0 -- -- 40
2019-03-01 16:00:00 20.5 -- -- -- -- 0 -- -- 46
2019-03-01 15:00:00 21.9 -- -- -- -- 0 -- -- 40
2019-03-01 14:00:00 21.6 -- -- -- -- 0 -- -- 32
2019-03-01 13:00:00 20.6 -- -- -- -- 0 -- -- 36
2019-03-01 12:00:00 19.3 -- -- -- -- 0 -- -- 44
2019-03-01 11:00:00 16.4 -- -- -- -- 0 -- -- 42
2019-03-01 10:00:00 12.6 -- -- -- -- 0 -- -- 48
2019-03-01 09:00:00 8.1 -- -- -- -- 0 -- -- 63
2019-03-01 08:00:00 5.5 -- -- -- -- 0 -- -- 72
2019-03-01 07:00:00 5.4 -- -- -- -- 0 -- -- 70
2019-03-01 06:00:00 5.9 -- -- -- -- 0 -- -- 72
2019-03-01 05:00:00 7.1 -- -- -- -- 0 -- -- 67
2019-03-01 04:00:00 7 -- -- -- -- 0 -- -- 70
2019-03-01 03:00:00 7.1 -- -- -- -- 0 -- -- 71
2019-03-01 02:00:00 7.8 -- -- -- -- 0 -- -- 71
2019-03-01 01:00:00 9.3 -- -- -- -- 0 -- -- 69
2019-03-01 00:00:00 10.5 -- -- -- -- 0 -- -- 59
2019-02-28 23:00:00 12.2 -- -- -- -- 0 -- -- 59
2019-02-28 22:00:00 14 -- -- -- -- 0 -- -- 51
2019-02-28 21:00:00 15.7 -- -- -- -- 0 -- -- 46
2019-02-28 20:00:00 17.8 -- -- -- -- 0 -- -- 46
2019-02-28 19:00:00 19.2 -- -- -- -- 0 -- -- 42
2019-02-28 18:00:00 21.1 -- -- -- -- 0 -- -- 31
2019-02-28 17:00:00 22.5 -- -- -- -- 0 -- -- 28
2019-02-28 16:00:00 22.7 -- -- -- -- 0 -- -- 27
2019-02-28 15:00:00 24.1 -- -- -- -- 0 -- -- 24
2019-02-28 14:00:00 25.2 -- -- -- -- 0 -- -- 28
2019-02-28 13:00:00 25.6 -- -- -- -- 0 -- -- 20
2019-02-28 12:00:00 24.3 -- -- -- -- 0 -- -- 23
2019-02-28 11:00:00 20.7 -- -- -- -- 0 -- -- 30
2019-02-28 10:00:00 15.9 -- -- -- -- 0 -- -- 39
2019-02-28 09:00:00 10.9 -- -- -- -- 0 -- -- 50
2019-02-28 08:00:00 5.1 -- -- -- -- 0 -- -- 71
2019-02-28 07:00:00 6.2 -- -- -- -- 0 -- -- 66
2019-02-28 06:00:00 7.8 -- -- -- -- 0 -- -- 57
2019-02-28 05:00:00 8.2 -- -- -- -- 0 -- -- 57
2019-02-28 04:00:00 8.3 -- -- -- -- 0 -- -- 59
2019-02-28 03:00:00 8.4 -- -- -- -- 0 -- -- 64
2019-02-28 02:00:00 7.9 -- -- -- -- 0 -- -- 69
2019-02-28 01:00:00 8 -- -- -- -- 0 -- -- 75
2019-02-28 00:00:00 8.6 -- -- -- -- 0 -- -- 82
2019-02-27 23:00:00 9.5 -- -- -- -- 0 -- -- 77
2019-02-27 22:00:00 10 -- -- -- -- 0 -- -- 69
2019-02-27 21:00:00 11.8 -- -- -- -- 0 -- -- 66
2019-02-27 20:00:00 13.1 -- -- -- -- 0 -- -- 69
2019-02-27 19:00:00 14.1 -- -- -- -- 0 -- -- 71
2019-02-27 18:00:00 16 -- -- -- -- 0 -- -- 58
2019-02-27 17:00:00 17.6 -- -- -- -- 0 -- -- 49
2019-02-27 16:00:00 19.2 -- -- -- -- 0 -- -- 38
2019-02-27 15:00:00 20.7 -- -- -- -- 0 -- -- 33
2019-02-27 14:00:00 21 -- -- -- -- 0 -- -- 31
2019-02-27 13:00:00 20.1 -- -- -- -- 0 -- -- 32
2019-02-27 12:00:00 19 -- -- -- -- 0 -- -- 32
2019-02-27 11:00:00 15.7 -- -- -- -- 0 -- -- 39
2019-02-27 10:00:00 12.1 -- -- -- -- 0 -- -- 46
2019-02-27 09:00:00 7.7 -- -- -- -- 0 -- -- 56
2019-02-27 08:00:00 4.3 -- -- -- -- 0 -- -- 66
2019-02-27 07:00:00 5 -- -- -- -- 0 -- -- 63
2019-02-27 06:00:00 5.6 -- -- -- -- 0 -- -- 62
2019-02-27 05:00:00 5.3 -- -- -- -- 0 -- -- 65
2019-02-27 04:00:00 5.8 -- -- -- -- 0 -- -- 64
2019-02-27 03:00:00 5.5 -- -- -- -- 0 -- -- 67
2019-02-27 02:00:00 5.7 -- -- -- -- 0 -- -- 67
2019-02-27 01:00:00 6.8 -- -- -- -- 0 -- -- 65
2019-02-27 00:00:00 7 -- -- -- -- 0 -- -- 63
2019-02-26 23:00:00 8.5 -- -- -- -- 0 -- -- 63
2019-02-26 22:00:00 9.7 -- -- -- -- 0 -- -- 51
2019-02-26 21:00:00 11.3 -- -- -- -- 0 -- -- 44
2019-02-26 20:00:00 13.6 -- -- -- -- 0 -- -- 37
2019-02-26 19:00:00 15.5 -- -- -- -- 0 -- -- 36
2019-02-26 18:00:00 17.9 -- -- -- -- 0 -- -- 27
2019-02-26 17:00:00 19.1 -- -- -- -- 0 -- -- 26
2019-02-26 16:00:00 19.8 -- -- -- -- 0 -- -- 26
2019-02-26 15:00:00 20.9 -- -- -- -- 0 -- -- 27
2019-02-26 14:00:00 20.8 -- -- -- -- 0 -- -- 26
2019-02-26 13:00:00 19.8 -- -- -- -- 0 -- -- 30
2019-02-26 12:00:00 18.1 -- -- -- -- 0 -- -- 31
2019-02-26 11:00:00 14.8 -- -- -- -- 0 -- -- 48
2019-02-26 10:00:00 10.3 -- -- -- -- 0 -- -- 63
2019-02-26 09:00:00 6.6 -- -- -- -- 0 -- -- 74
2019-02-26 08:00:00 4 -- -- -- -- 0 -- -- 82
2019-02-26 07:00:00 3.9 -- -- -- -- 0 -- -- 84
2019-02-26 06:00:00 4 -- -- -- -- 0 -- -- 84
2019-02-26 05:00:00 5.3 -- -- -- -- 0 -- -- 82
2019-02-26 04:00:00 5.1 -- -- -- -- 0 -- -- 85
2019-02-26 03:00:00 5.3 -- -- -- -- 0 -- -- 86
2019-02-26 02:00:00 6.7 -- -- -- -- 0 -- -- 85
2019-02-26 01:00:00 6.5 -- -- -- -- 0 -- -- 81
2019-02-26 00:00:00 7.4 -- -- -- -- 0 -- -- 78
2019-02-25 23:00:00 8.1 -- -- -- -- 0 -- -- 75
2019-02-25 22:00:00 9.5 -- -- -- -- 0 -- -- 75
2019-02-25 21:00:00 10.9 -- -- -- -- 0 -- -- 71
2019-02-25 20:00:00 12.3 -- -- -- -- 0 -- -- 63
2019-02-25 19:00:00 14.2 -- -- -- -- 0 -- -- 53
2019-02-25 18:00:00 16.3 -- -- -- -- 0 -- -- 45
2019-02-25 17:00:00 18 -- -- -- -- 0 -- -- 29
2019-02-25 16:00:00 18.6 -- -- -- -- 0 -- -- 26
2019-02-25 15:00:00 18.6 -- -- -- -- 0 -- -- 28
2019-02-25 14:00:00 18.7 -- -- -- -- 0 -- -- 28
2019-02-25 13:00:00 18.6 -- -- -- -- 0 -- -- 35
2019-02-25 12:00:00 16.8 -- -- -- -- 0 -- -- 46
2019-02-25 11:00:00 14.4 -- -- -- -- 0 -- -- 64
2019-02-25 10:00:00 12 -- -- -- -- 0 -- -- 76
2019-02-25 09:00:00 7.6 -- -- -- -- 0 -- -- 82
2019-02-25 08:00:00 6.5 -- -- -- -- 0 -- -- 86
2019-02-25 07:00:00 7.4 -- -- -- -- 0 -- -- 87
2019-02-25 06:00:00 8.3 -- -- -- -- 0 -- -- 87
2019-02-25 05:00:00 8.3 -- -- -- -- 0 -- -- 86
2019-02-25 04:00:00 8.9 -- -- -- -- 0 -- -- 86
2019-02-25 03:00:00 8.9 -- -- -- -- 0 -- -- 85
2019-02-25 02:00:00 9.1 -- -- -- -- 0 -- -- 85
2019-02-25 01:00:00 9.8 -- -- -- -- 0 -- -- 85
2019-02-25 00:00:00 9.9 -- -- -- -- 0 -- -- 84
2019-02-24 23:00:00 10.2 -- -- -- -- 0 -- -- 85
2019-02-24 22:00:00 10.7 -- -- -- -- 0 -- -- 84
2019-02-24 21:00:00 12.2 -- -- -- -- 0 -- -- 82
2019-02-24 20:00:00 12.8 -- -- -- -- 0 -- -- 80
2019-02-24 19:00:00 13.7 -- -- -- -- 0 -- -- 77
2019-02-24 18:00:00 15.3 -- -- -- -- 0 -- -- 66
2019-02-24 17:00:00 16.7 -- -- -- -- 0 -- -- 58
2019-02-24 16:00:00 17.8 -- -- -- -- 0 -- -- 55
2019-02-24 15:00:00 18.1 -- -- -- -- 0 -- -- 52
2019-02-24 14:00:00 17.6 -- -- -- -- 0 -- -- 53
2019-02-24 13:00:00 16.5 -- -- -- -- 0 -- -- 59
2019-02-24 12:00:00 15.7 -- -- -- -- 0 -- -- 64
2019-02-24 11:00:00 14.4 -- -- -- -- 0 -- -- 71
2019-02-24 10:00:00 13.4 -- -- -- -- 0 -- -- 79
2019-02-24 09:00:00 10.6 -- -- -- -- 0 -- -- 82
2019-02-24 08:00:00 7.3 -- -- -- -- 0 -- -- 80
2019-02-24 07:00:00 5.3 -- -- -- -- 0 -- -- 71
2019-02-24 06:00:00 5 -- -- -- -- 0 -- -- 71
2019-02-24 05:00:00 5.5 -- -- -- -- 0 -- -- 71
2019-02-24 04:00:00 6 -- -- -- -- 0 -- -- 67
2019-02-24 03:00:00 6.7 -- -- -- -- 0 -- -- 66
2019-02-24 02:00:00 7.1 -- -- -- -- 0 -- -- 64
2019-02-24 01:00:00 8.4 -- -- -- -- 0 -- -- 59
2019-02-24 00:00:00 9.2 -- -- -- -- 0 -- -- 57
2019-02-23 23:00:00 10.3 -- -- -- -- 0 -- -- 53
2019-02-23 22:00:00 12.2 -- -- -- -- 0 -- -- 47
2019-02-23 21:00:00 12.9 -- -- -- -- 0 -- -- 45
2019-02-23 20:00:00 16.6 -- -- -- -- 0 -- -- 34
2019-02-23 19:00:00 18.1 -- -- -- -- 0 -- -- 29
2019-02-23 18:00:00 19.9 -- -- -- -- 0 -- -- 23
2019-02-23 17:00:00 22.9 -- -- -- -- 0 -- -- 22
2019-02-23 16:00:00 24.8 -- -- -- -- 0 -- -- 16
2019-02-23 15:00:00 24.6 -- -- -- -- 0 -- -- 17
2019-02-23 14:00:00 25.9 -- -- -- -- 0 -- -- 16
2019-02-23 13:00:00 24.7 -- -- -- -- 0 -- -- 18
2019-02-23 12:00:00 24 -- -- -- -- 0 -- -- 19
2019-02-23 11:00:00 21.2 -- -- -- -- 0 -- -- 28
2019-02-23 10:00:00 15.2 -- -- -- -- 0 -- -- 42
2019-02-23 09:00:00 8.9 -- -- -- -- 0 -- -- 58
2019-02-23 08:00:00 6.4 -- -- -- -- 0 -- -- 65
2019-02-23 07:00:00 6.5 -- -- -- -- 0 -- -- 66
2019-02-23 06:00:00 5.9 -- -- -- -- 0 -- -- 72
2019-02-23 05:00:00 5.8 -- -- -- -- 0 -- -- 79
2019-02-23 04:00:00 6.8 -- -- -- -- 0 -- -- 75
2019-02-23 03:00:00 7.8 -- -- -- -- 0 -- -- 72
2019-02-23 02:00:00 8.6 -- -- -- -- 0 -- -- 73
2019-02-23 01:00:00 8.3 -- -- -- -- 0 -- -- 87
2019-02-23 00:00:00 8.7 -- -- -- -- 0 -- -- 86
2019-02-22 23:00:00 9.2 -- -- -- -- 0 -- -- 85
2019-02-22 22:00:00 10.3 -- -- -- -- 0 -- -- 78
2019-02-22 21:00:00 11.3 -- -- -- -- 0 -- -- 76
2019-02-22 20:00:00 12.5 -- -- -- -- 0 -- -- 71
2019-02-22 19:00:00 14.5 -- -- -- -- 0 -- -- 66
2019-02-22 18:00:00 16.5 -- -- -- -- 0 -- -- 59
2019-02-22 17:00:00 18.8 -- -- -- -- 0 -- -- 49
2019-02-22 16:00:00 19.9 -- -- -- -- 0 -- -- 44
2019-02-22 15:00:00 19.6 -- -- -- -- 0 -- -- 41
2019-02-22 14:00:00 19.3 -- -- -- -- 0 -- -- 41
2019-02-22 13:00:00 18.3 -- -- -- -- 0 -- -- 46
2019-02-22 12:00:00 16.4 -- -- -- -- 0 -- -- 48
2019-02-22 11:00:00 13.3 -- -- -- -- 0 -- -- 54
2019-02-22 10:00:00 9.9 -- -- -- -- 0 -- -- 67
2019-02-22 09:00:00 6.1 -- -- -- -- 0 -- -- 78
2019-02-22 08:00:00 4.5 -- -- -- -- 0 -- -- 82
2019-02-22 07:00:00 4.5 -- -- -- -- 0 -- -- 85
2019-02-22 06:00:00 4.4 -- -- -- -- 0 -- -- 87
2019-02-22 05:00:00 4.5 -- -- -- -- 0 -- -- 87
2019-02-22 04:00:00 4.6 -- -- -- -- 0 -- -- 88
2019-02-22 03:00:00 5.4 -- -- -- -- 0 -- -- 87
2019-02-22 02:00:00 5.3 -- -- -- -- 0 -- -- 86
2019-02-22 01:00:00 5.7 -- -- -- -- 0 -- -- 84
2019-02-22 00:00:00 6.4 -- -- -- -- 0 -- -- 83
2019-02-21 23:00:00 6.9 -- -- -- -- 0 -- -- 80
2019-02-21 22:00:00 8.5 -- -- -- -- 0 -- -- 78
2019-02-21 21:00:00 9.7 -- -- -- -- 0 -- -- 75
2019-02-21 20:00:00 11 -- -- -- -- 0 -- -- 72
2019-02-21 19:00:00 12.7 -- -- -- -- 0 -- -- 65
2019-02-21 18:00:00 14.8 -- -- -- -- 0 -- -- 57
2019-02-21 17:00:00 16 -- -- -- -- 0 -- -- 55
2019-02-21 16:00:00 16.5 -- -- -- -- 0 -- -- 53
2019-02-21 15:00:00 15.9 -- -- -- -- 0 -- -- 56
2019-02-21 14:00:00 15.3 -- -- -- -- 0 -- -- 57
2019-02-21 13:00:00 15.6 -- -- -- -- 0 -- -- 57
2019-02-21 12:00:00 15 -- -- -- -- 0 -- -- 62
2019-02-21 11:00:00 11.9 -- -- -- -- 0 -- -- 73
2019-02-21 10:00:00 8.2 -- -- -- -- 0 -- -- 83
2019-02-21 09:00:00 5.8 -- -- -- -- 0 -- -- 91
2019-02-21 08:00:00 3.5 -- -- -- -- 0 -- -- 91
2019-02-21 07:00:00 4 -- -- -- -- 0 -- -- 91
2019-02-21 06:00:00 4.4 -- -- -- -- 0 -- -- 90
2019-02-21 05:00:00 4.3 -- -- -- -- 0 -- -- 90
2019-02-21 04:00:00 5.1 -- -- -- -- 0 -- -- 89
2019-02-21 03:00:00 5.5 -- -- -- -- 0 -- -- 88
2019-02-21 02:00:00 6.1 -- -- -- -- 0 -- -- 87
2019-02-21 01:00:00 6.5 -- -- -- -- 0 -- -- 86
2019-02-21 00:00:00 7.2 -- -- -- -- 0 -- -- 84
2019-02-20 23:00:00 8.1 -- -- -- -- 0 -- -- 85
2019-02-20 22:00:00 9.3 -- -- -- -- 0 -- -- 83
2019-02-20 21:00:00 10.2 -- -- -- -- 0 -- -- 82
2019-02-20 20:00:00 11.5 -- -- -- -- 0 -- -- 78
2019-02-20 19:00:00 12.5 -- -- -- -- 0 -- -- 74
2019-02-20 18:00:00 14 -- -- -- -- 0 -- -- 68
2019-02-20 17:00:00 15.4 -- -- -- -- 0 -- -- 61
2019-02-20 16:00:00 15.9 -- -- -- -- 0 -- -- 58
2019-02-20 15:00:00 17.1 -- -- -- -- 0 -- -- 50
2019-02-20 14:00:00 16.9 -- -- -- -- 0 -- -- 49
2019-02-20 13:00:00 15.2 -- -- -- -- 0 -- -- 54
2019-02-20 12:00:00 14.5 -- -- -- -- 0 -- -- 58
2019-02-20 11:00:00 12.4 -- -- -- -- 0 -- -- 68
2019-02-20 10:00:00 10.5 -- -- -- -- 0 -- -- 75
2019-02-20 09:00:00 7.7 -- -- -- -- 0 -- -- 85
2019-02-20 08:00:00 6.4 -- -- -- -- 0 -- -- 88
2019-02-20 07:00:00 6.2 -- -- -- -- 0 -- -- 89
2019-02-20 06:00:00 6.7 -- -- -- -- 0 -- -- 87
2019-02-20 05:00:00 8 -- -- -- -- 0 -- -- 85
2019-02-20 04:00:00 8 -- -- -- -- 0 -- -- 89
2019-02-20 03:00:00 7.2 -- -- -- -- 0 -- -- 86
2019-02-20 02:00:00 8 -- -- -- -- 0 -- -- 86
2019-02-20 01:00:00 8.3 -- -- -- -- 0 -- -- 87
2019-02-20 00:00:00 9 -- -- -- -- 0 -- -- 84